Mineral Point, WI

08:14 CST le 08 février 2016 (GMT -0600)
KWIMINER1 | | Change Station
CLOSE
Current Station
Stations météorologiques personnelles
Location: Mineral Point, WI
Altitude: 1066 ft
Stations météo à proximité

Alt. 1066 ft 42.85 °N, 90.18 °W | Updated 34 seconds ago

Neige
Neige
17.8 ° F
Paraît 18 ° F
N
2.0
Vent Variable Vent de ONO
Gusts 9.0 mph

Aujourd'hui
Haut(e) -- | Bas -- ° F
--% Risque de précip.
Hier
Haut(e) -- | Bas -- ° F
Precip. -- pouce
Pression 29.67 pouce
Visibilité 2.0 Miles terrestres
Nuages Nuages épars 1000 ft
Nuageux 2000 ft
Refroidissement éolien 18 ° F
Point de rosée 15 ° F
Humidité 90%
Précipitations 0.00 pouce
Profondeur de la couche neigeuse Non disponible.
7:07 AM 5:22 PM
Lune descendante, 0% visible
METAR KMRJ 081355Z AUTO 31009G17KT 2SM -SN SCT010 BKN020 M06/M08 A2967 RMK AO2
Pression 29.67 pouce
Visibilité 2.0 Miles terrestres
Nuages Nuages épars 1000 ft
Nuageux 2000 ft
Refroidissement éolien 18 ° F
Point de rosée 15 ° F
Humidité 90%
Précipitations 0.00 pouce
Profondeur de la couche neigeuse Non disponible.
7:07 AM 5:22 PM
Lune descendante, 0% visible
METAR KMRJ 081355Z AUTO 31009G17KT 2SM -SN SCT010 BKN020 M06/M08 A2967 RMK AO2

10-Day Weather Forecast

Almanac

Astronomie

Feb. 08, 2016 Lever Coucher
Temps réel
Crépuscule civil
Crépuscule nautique
Crépuscule astronomique
Lune
Durée de lumière visible
Longueur du jour
Tomorrow will be .
, % of the Moon is Illuminated

Extrêmes aujourd'hui

State Highs State Lows

Community

WunderPhotos

Upload Photos

1,891,437 Photos téléchargées !

WunderBlog® & News

Nearby

Qualité de l'air

  Qualité de l'air Indice de la qualité de l'air Polluant
Not available.

Épaisseur de neige

Station Depth Altitude

Activité sismique

Ville Distance Mag. Time & Date
Minimum magnitude displayed is 2.5.

Températures des eaux côtières

Lieu Température

Stations

Stations météo à proximité

Emplacement de la station Température Refroidissement éolien Point de rosée Humidité Vent Precip. Alt. Mise à jour Type
                   

Watches & Warnings

There are currently no watches in effect.